Time;durP1;ratioP1;P1;durP2;ratioP2;P2;SDS_P1;SDS_P2;PMS_P1;PMS_P2;Temp;Humidity;BMP_temperature;BMP_pressure;BME280_temperature;BME280_humidity;BME280_pressure;Samples;Min_cycle;Max_cycle;Signal;HPM_P1;HPM_P2
2021/09/30 00:01:00;;;;;;;1.20;1.20;;;;;;;8.08;100.00;98967.84;5001612;28;20258;-65
2021/09/30 00:03:30;;;;;;;2.40;1.40;;;;;;;7.98;100.00;98966.91;5025199;28;20239;-65
2021/09/30 00:05:58;;;;;;;2.10;1.30;;;;;;;7.99;100.00;98970.41;5033644;28;20204;-65
2021/09/30 00:08:26;;;;;;;2.20;1.23;;;;;;;7.97;100.00;98965.22;5033910;28;20203;-68
2021/09/30 00:10:59;;;;;;;1.40;1.40;;;;;;;7.94;100.00;98970.75;5033111;28;20210;-66
2021/09/30 00:13:41;;;;;;;1.47;1.47;;;;;;;7.89;100.00;98967.66;5034355;28;20227;-67
2021/09/30 00:16:28;;;;;;;1.73;1.63;;;;;;;7.88;100.00;98976.53;4996435;28;21121;-67
2021/09/30 00:32:53;;;;;;;2.13;2.03;;;;;;;7.52;100.00;98993.34;4998327;28;20234;-66
2021/09/30 00:35:37;;;;;;;2.00;1.90;;;;;;;7.56;100.00;98987.84;5030830;28;20938;-67
2021/09/30 00:46:21;;;;;;;2.77;2.57;;;;;;;7.51;100.00;98991.66;5000397;28;20204;-67
2021/09/30 00:48:59;;;;;;;2.60;2.00;;;;;;;7.41;100.00;98982.81;4995479;28;20291;-66
2021/09/30 00:51:33;;;;;;;4.83;2.00;;;;;;;7.34;100.00;98990.34;5032105;28;20212;-68
2021/09/30 02:22:51;;;;;;;1.87;1.87;;;;;;;6.54;100.00;99049.06;5029980;28;20231;-70
2021/09/30 02:25:39;;;;;;;1.93;1.83;;;;;;;6.56;100.00;99053.25;5003651;28;20285;-69
2021/09/30 02:59:10;;;;;;;3.47;2.40;;;;;;;6.56;100.00;99074.31;4953116;28;20209;-68
2021/09/30 03:01:40;;;;;;;2.80;2.50;;;;;;;6.54;100.00;99076.22;4967648;28;20205;-66
2021/09/30 03:04:10;;;;;;;2.73;2.53;;;;;;;6.59;100.00;99086.44;4992829;28;20195;-66
2021/09/30 03:06:40;;;;;;;2.00;1.90;;;;;;;6.58;100.00;99080.31;5020882;28;20200;-66
2021/09/30 03:09:10;;;;;;;2.03;1.93;;;;;;;6.58;100.00;99082.13;5030217;28;20196;-67
2021/09/30 03:11:39;;;;;;;2.20;2.10;;;;;;;6.59;100.00;99083.78;4995364;28;20724;-65
2021/09/30 03:14:08;;;;;;;2.53;2.23;;;;;;;6.55;100.00;99083.16;5021238;28;20207;-67
2021/09/30 03:16:40;;;;;;;2.10;2.00;;;;;;;6.51;100.00;99084.34;5034724;28;20209;-66
2021/09/30 03:19:19;;;;;;;2.23;2.03;;;;;;;6.51;100.00;99089.59;5033185;28;20204;-67
2021/09/30 03:22:13;;;;;;;2.87;1.77;;;;;;;6.48;100.00;99082.78;5021425;28;20214;-66
2021/09/30 03:24:47;;;;;;;2.37;2.17;;;;;;;6.43;100.00;99097.22;5017664;28;20502;-67
2021/09/30 03:27:16;;;;;;;6.90;3.60;;;;;;;6.35;100.00;99093.34;4996406;28;20210;-66
2021/09/30 03:29:44;;;;;;;2.17;2.07;;;;;;;6.27;100.00;99098.34;5019767;28;20237;-67
2021/09/30 03:32:12;;;;;;;1.73;1.63;;;;;;;6.29;100.00;99100.84;5035881;28;20219;-66
2021/09/30 03:34:41;;;;;;;2.40;2.20;;;;;;;6.22;100.00;99103.91;5032629;28;20420;-66
2021/09/30 03:37:10;;;;;;;2.57;2.43;;;;;;;6.27;100.00;99108.00;5026399;28;20432;-66
2021/09/30 03:39:38;;;;;;;2.20;2.10;;;;;;;6.22;100.00;99103.91;5032879;28;20207;-68
2021/09/30 03:42:06;;;;;;;2.43;1.80;;;;;;;6.15;100.00;99112.34;5004110;28;20260;-66
2021/09/30 03:44:34;;;;;;;2.20;2.00;;;;;;;6.11;100.00;99110.88;4975293;28;20434;-69
2021/09/30 03:47:02;;;;;;;2.53;2.43;;;;;;;5.99;100.00;99107.28;4980409;28;20217;-67
2021/09/30 03:49:32;;;;;;;2.57;2.47;;;;;;;6.00;100.00;99106.34;4981129;28;20221;-68
2021/09/30 03:52:08;;;;;;;2.30;2.13;;;;;;;5.95;100.00;99111.94;4976914;28;20626;-70
2021/09/30 03:54:43;;;;;;;2.43;2.30;;;;;;;5.88;100.00;99119.41;4992988;28;20783;-66
2021/09/30 03:57:22;;;;;;;2.30;2.10;;;;;;;5.86;100.00;99125.72;4960608;28;20275;-66
2021/09/30 03:59:50;;;;;;;2.43;2.33;;;;;;;5.76;100.00;99118.47;4995663;28;20204;-65
2021/09/30 04:02:17;;;;;;;2.37;2.23;;;;;;;5.72;100.00;99126.69;4950930;28;20226;-64
2021/09/30 04:04:47;;;;;;;3.10;2.40;;;;;;;5.68;100.00;99133.06;4978146;28;20287;-65
2021/09/30 04:07:15;;;;;;;2.43;2.23;;;;;;;5.85;100.00;99131.91;4991760;28;20230;-66
2021/09/30 04:09:44;;;;;;;2.47;2.37;;;;;;;5.66;100.00;99141.09;4994869;28;20213;-65
2021/09/30 04:12:13;;;;;;;3.10;2.37;;;;;;;5.55;100.00;99146.25;4985232;28;20576;-67
2021/09/30 04:14:42;;;;;;;2.63;2.20;;;;;;;5.54;100.00;99153.28;4993885;28;20308;-67
2021/09/30 04:17:10;;;;;;;3.90;3.07;;;;;;;5.46;100.00;99148.53;4954812;28;20231;-65
2021/09/30 04:19:38;;;;;;;3.73;2.50;;;;;;;5.42;100.00;99157.56;4988252;28;20208;-66
2021/09/30 04:22:06;;;;;;;4.97;2.80;;;;;;;5.27;100.00;99155.97;4988950;28;20247;-65
2021/09/30 04:24:33;;;;;;;3.40;2.50;;;;;;;5.25;100.00;99149.97;4992410;28;20288;-69
2021/09/30 04:27:03;;;;;;;3.03;2.57;;;;;;;5.14;100.00;99155.94;4984010;28;20217;-67
2021/09/30 04:29:31;;;;;;;2.50;2.30;;;;;;;4.99;100.00;99152.50;4990104;28;20208;-70
2021/09/30 04:31:59;;;;;;;2.77;2.67;;;;;;;5.15;100.00;99153.22;4976656;28;20229;-67
2021/09/30 04:34:28;;;;;;;5.07;2.77;;;;;;;5.08;100.00;99159.78;4977129;28;20381;-69
2021/09/30 04:36:56;;;;;;;2.57;2.37;;;;;;;5.00;100.00;99167.34;4994049;28;20650;-67
2021/09/30 04:39:24;;;;;;;2.43;2.33;;;;;;;4.86;100.00;99171.69;4994368;28;20426;-69
2021/09/30 04:41:52;;;;;;;2.40;2.30;;;;;;;4.78;100.00;99171.34;4993543;28;20599;-67
2021/09/30 04:44:22;;;;;;;2.43;2.20;;;;;;;4.67;100.00;99169.41;4990609;28;20333;-68
2021/09/30 04:46:51;;;;;;;2.80;2.57;;;;;;;4.57;100.00;99169.13;4995569;28;20231;-69
2021/09/30 04:49:19;;;;;;;2.13;2.03;;;;;;;4.49;100.00;99174.03;4949161;28;20213;-68
2021/09/30 04:51:50;;;;;;;2.93;2.73;;;;;;;4.50;100.00;99173.09;4989854;28;20211;-67
2021/09/30 04:54:18;;;;;;;2.97;2.77;;;;;;;4.45;100.00;99172.53;4982423;28;20295;-67
2021/09/30 04:56:46;;;;;;;2.57;2.37;;;;;;;4.40;100.00;99177.25;4977093;28;20218;-67
2021/09/30 04:59:13;;;;;;;2.53;2.43;;;;;;;4.46;100.00;99175.06;4988387;28;20846;-69
2021/09/30 05:01:43;;;;;;;2.97;2.77;;;;;;;4.53;100.00;99172.03;4991877;28;20219;-69
2021/09/30 05:04:11;;;;;;;2.70;2.50;;;;;;;4.53;100.00;99175.53;4957065;28;21254;-67
2021/09/30 05:06:39;;;;;;;2.30;2.20;;;;;;;4.49;100.00;99177.50;4977233;28;20233;-67
2021/09/30 05:09:07;;;;;;;2.60;2.50;;;;;;;4.39;100.00;99175.56;4979174;28;20691;-66
2021/09/30 05:11:36;;;;;;;2.83;2.50;;;;;;;4.32;100.00;99168.03;4983786;28;20386;-65
2021/09/30 05:14:04;;;;;;;2.33;2.13;;;;;;;4.33;100.00;99161.84;4992583;28;20312;-64
2021/09/30 05:16:33;;;;;;;3.13;2.93;;;;;;;4.35;100.00;99167.84;4988492;28;20220;-64
2021/09/30 05:19:02;;;;;;;2.57;2.37;;;;;;;4.27;100.00;99177.16;4964444;28;20255;-65
2021/09/30 05:21:30;;;;;;;3.00;2.80;;;;;;;4.19;100.00;99175.00;4959423;28;20221;-65
2021/09/30 05:23:58;;;;;;;3.67;2.87;;;;;;;4.25;100.00;99179.03;4960747;28;20217;-64
2021/09/30 05:26:27;;;;;;;3.53;3.23;;;;;;;4.29;100.00;99183.16;4991902;28;20228;-65
2021/09/30 05:28:56;;;;;;;4.33;3.53;;;;;;;4.29;100.00;99183.97;4986404;28;20740;-65
2021/09/30 05:31:24;;;;;;;2.53;2.33;;;;;;;4.25;100.00;99200.84;4989791;28;20513;-66
2021/09/30 05:33:52;;;;;;;4.97;3.13;;;;;;;4.38;100.00;99194.88;4989515;28;20252;-65
2021/09/30 05:36:22;;;;;;;3.40;3.10;;;;;;;4.39;100.00;99201.81;4956049;28;20408;-66
2021/09/30 05:38:50;;;;;;;3.50;3.20;;;;;;;4.55;100.00;99202.53;4976556;28;20220;-67
2021/09/30 05:41:18;;;;;;;4.00;3.13;;;;;;;4.59;100.00;99204.00;4979824;28;20247;-69
2021/09/30 05:43:50;;;;;;;3.40;3.10;;;;;;;4.76;100.00;99208.22;4982614;28;20263;-66
2021/09/30 05:46:29;;;;;;;3.83;3.53;;;;;;;4.71;100.00;99210.28;4991025;28;20784;-68
2021/09/30 05:48:58;;;;;;;4.87;4.47;;;;;;;4.90;100.00;99209.97;4992242;28;20300;-68
2021/09/30 05:51:27;;;;;;;3.33;3.13;;;;;;;4.87;100.00;99211.94;4960410;28;20244;-70
2021/09/30 05:53:55;;;;;;;4.87;4.03;;;;;;;4.87;100.00;99219.81;4990200;28;20224;-68
2021/09/30 05:56:23;;;;;;;3.47;3.27;;;;;;;4.95;100.00;99216.72;4983066;28;20205;-69
2021/09/30 05:58:51;;;;;;;3.97;3.67;;;;;;;4.98;100.00;99212.09;4979456;28;20217;-69
2021/09/30 06:12:36;;;;;;;3.60;3.40;;;;;;;5.46;100.00;99206.38;4910348;29;20239;-68
2021/09/30 06:15:12;;;;;;;3.30;3.00;;;;;;;5.47;100.00;99210.69;4971615;28;20210;-71
2021/09/30 06:17:41;;;;;;;3.47;3.27;;;;;;;5.53;100.00;99214.69;4990205;28;20204;-68
2021/09/30 06:20:10;;;;;;;4.63;3.90;;;;;;;5.57;100.00;99213.53;4994100;28;20716;-70
2021/09/30 06:22:39;;;;;;;4.27;3.87;;;;;;;5.70;100.00;99216.22;4991386;28;20263;-69
2021/09/30 06:25:08;;;;;;;6.60;3.97;;;;;;;5.77;100.00;99214.00;4940788;28;20488;-69
2021/09/30 06:27:36;;;;;;;3.50;3.30;;;;;;;5.90;100.00;99214.03;4992439;28;20417;-70
2021/09/30 06:30:06;;;;;;;4.23;3.93;;;;;;;5.88;100.00;99223.81;4980672;28;20209;-67
2021/09/30 06:32:33;;;;;;;3.70;3.50;;;;;;;5.97;100.00;99223.19;4994433;28;20220;-69
2021/09/30 06:35:01;;;;;;;3.93;3.57;;;;;;;6.06;100.00;99222.59;4992427;28;20212;-68
2021/09/30 06:37:29;;;;;;;3.47;3.27;;;;;;;6.25;100.00;99226.59;4994623;28;20208;-67
2021/09/30 06:39:59;;;;;;;3.27;3.07;;;;;;;6.21;100.00;99219.84;4958019;28;20225;-68
2021/09/30 06:42:27;;;;;;;3.33;3.13;;;;;;;6.40;100.00;99224.66;4989687;28;20228;-68
2021/09/30 06:44:55;;;;;;;3.13;2.80;;;;;;;6.46;100.00;99223.41;4992496;28;20326;-66
2021/09/30 06:47:23;;;;;;;3.43;3.23;;;;;;;6.63;100.00;99230.13;4991666;28;20225;-66
2021/09/30 06:49:51;;;;;;;2.70;2.50;;;;;;;6.76;100.00;99227.47;4993858;28;20197;-68
2021/09/30 06:52:39;;;;;;;2.97;2.77;;;;;;;7.02;100.00;99233.50;4996798;28;20327;-69
2021/09/30 06:55:10;;;;;;;2.77;2.57;;;;;;;7.10;100.00;99225.03;4958828;28;20217;-67
2021/09/30 06:57:38;;;;;;;3.00;2.80;;;;;;;7.35;100.00;99228.50;4992640;28;20205;-70
2021/09/30 07:00:14;;;;;;;3.37;3.17;;;;;;;7.34;100.00;99232.09;4991699;28;20236;-67
2021/09/30 07:02:43;;;;;;;4.50;3.30;;;;;;;7.48;100.00;99234.56;4987145;28;20232;-69
2021/09/30 07:05:14;;;;;;;8.33;3.20;;;;;;;7.51;100.00;99238.75;4991751;28;20358;-69
2021/09/30 07:07:42;;;;;;;3.50;2.57;;;;;;;7.64;100.00;99233.44;4995072;28;20224;-68
2021/09/30 07:10:12;;;;;;;5.30;2.87;;;;;;;7.71;100.00;99236.47;4979231;28;20215;-69
2021/09/30 07:12:41;;;;;;;2.70;2.50;;;;;;;7.76;100.00;99237.78;4957562;28;20240;-69
2021/09/30 07:15:11;;;;;;;2.83;2.60;;;;;;;7.86;100.00;99239.75;4993867;28;20294;-68
2021/09/30 07:17:39;;;;;;;2.17;1.97;;;;;;;7.97;100.00;99231.84;4976830;28;20213;-68
2021/09/30 07:20:08;;;;;;;2.57;2.37;;;;;;;7.97;100.00;99234.47;4991863;28;20648;-69
2021/09/30 07:22:35;;;;;;;4.10;2.47;;;;;;;8.19;100.00;99241.59;4990536;28;20241;-69
2021/09/30 07:25:05;;;;;;;2.87;1.83;;;;;;;8.35;100.00;99238.63;4991423;28;20209;-68
2021/09/30 07:27:35;;;;;;;3.03;2.30;;;;;;;8.34;100.00;99244.84;4958606;28;20332;-67
2021/09/30 07:30:04;;;;;;;2.30;2.20;;;;;;;8.38;100.00;99243.66;4993915;28;20201;-70
2021/09/30 07:32:32;;;;;;;2.63;2.40;;;;;;;8.39;100.00;99247.16;4993361;28;20240;-66
2021/09/30 07:35:00;;;;;;;2.83;2.27;;;;;;;8.45;100.00;99249.31;4969561;28;20209;-69
2021/09/30 07:37:28;;;;;;;2.33;2.23;;;;;;;8.56;100.00;99245.88;4984528;28;20216;-68
2021/09/30 07:39:56;;;;;;;2.97;2.37;;;;;;;8.67;100.00;99259.06;4977534;28;20435;-68
2021/09/30 07:42:24;;;;;;;5.23;2.13;;;;;;;8.76;100.00;99256.66;4964633;28;20240;-68
2021/09/30 07:44:53;;;;;;;2.53;2.23;;;;;;;8.88;100.00;99260.13;4986438;28;20519;-68
2021/09/30 07:47:21;;;;;;;2.03;1.93;;;;;;;9.08;100.00;99256.72;4997187;28;20235;-67
2021/09/30 07:49:49;;;;;;;2.53;2.30;;;;;;;9.13;100.00;99259.00;4983811;28;20208;-67
2021/09/30 07:52:17;;;;;;;3.57;2.47;;;;;;;9.25;100.00;99254.53;4983751;28;20253;-71
2021/09/30 07:54:46;;;;;;;2.07;1.93;;;;;;;9.45;100.00;99254.69;4991352;28;20297;-68
2021/09/30 07:57:13;;;;;;;3.10;2.77;;;;;;;9.42;100.00;99261.09;4958576;28;20213;-69
2021/09/30 07:59:41;;;;;;;3.60;2.40;;;;;;;9.44;100.00;99260.97;4988888;28;20205;-70
2021/09/30 08:02:11;;;;;;;1.80;1.70;;;;;;;9.61;100.00;99262.22;4993811;28;20224;-68
2021/09/30 08:04:39;;;;;;;5.37;2.30;;;;;;;9.58;100.00;99258.03;4981756;28;20273;-69
2021/09/30 08:07:07;;;;;;;2.33;2.23;;;;;;;9.61;100.00;99262.22;4993761;28;21021;-68
2021/09/30 08:09:35;;;;;;;2.40;1.77;;;;;;;9.64;100.00;99264.63;4981282;28;20220;-69
2021/09/30 08:12:04;;;;;;;2.27;2.17;;;;;;;9.71;100.00;99255.22;4958408;28;20722;-68
2021/09/30 08:14:33;;;;;;;1.83;1.70;;;;;;;9.80;100.00;99257.09;4991043;28;20212;-68
2021/09/30 08:17:01;;;;;;;2.10;1.90;;;;;;;9.96;100.00;99255.81;4955356;28;20227;-69
2021/09/30 08:19:30;;;;;;;2.33;2.13;;;;;;;9.95;100.00;99262.06;4989411;28;20427;-68
2021/09/30 08:21:58;;;;;;;4.20;1.90;;;;;;;10.07;100.00;99265.50;4994902;28;20240;-68
2021/09/30 08:24:26;;;;;;;2.60;1.80;;;;;;;10.22;100.00;99261.53;4994472;28;20803;-70
2021/09/30 08:26:54;;;;;;;2.60;1.60;;;;;;;10.32;100.00;99261.59;4994134;28;20208;-69
2021/09/30 08:29:22;;;;;;;2.20;2.00;;;;;;;10.48;100.00;99245.25;4993905;28;20838;-69
2021/09/30 08:31:50;;;;;;;2.73;2.10;;;;;;;10.58;100.00;99242.66;4995691;28;20205;-68
2021/09/30 08:34:19;;;;;;;1.67;1.60;;;;;;;10.64;100.00;99243.94;4965841;28;20288;-68
2021/09/30 08:36:48;;;;;;;2.20;2.00;;;;;;;10.75;100.00;99243.84;4993932;28;20208;-68
2021/09/30 08:39:16;;;;;;;2.43;1.83;;;;;;;10.78;100.00;99246.22;4989104;28;20208;-70
2021/09/30 08:41:44;;;;;;;1.83;1.73;;;;;;;10.77;100.00;99251.63;4995868;28;20205;-68
2021/09/30 08:44:12;;;;;;;1.83;1.73;;;;;;;10.89;100.00;99249.72;4988063;28;20213;-69
2021/09/30 08:46:40;;;;;;;4.87;1.80;;;;;;;10.58;100.00;99242.66;4995449;28;20387;-69
2021/09/30 08:49:08;;;;;;;2.90;1.50;;;;;;;10.77;100.00;99249.00;4956744;28;20236;-69
2021/09/30 08:51:36;;;;;;;1.90;1.80;;;;;;;10.89;100.00;99247.94;4988890;28;20212;-69
2021/09/30 08:54:06;;;;;;;2.00;1.80;;;;;;;10.70;100.00;99244.22;4986251;28;20219;-68
2021/09/30 08:56:35;;;;;;;1.90;1.80;;;;;;;10.82;100.00;99242.31;4994953;28;20308;-69
2021/09/30 08:59:13;;;;;;;3.10;1.80;;;;;;;10.78;100.00;99248.88;4993275;28;20200;-69
2021/09/30 09:01:45;;;;;;;2.73;1.90;;;;;;;10.98;100.00;99246.25;4993353;28;20209;-68
2021/09/30 09:04:19;;;;;;;2.57;2.37;;;;;;;11.06;100.00;99248.25;4953822;28;20213;-68
2021/09/30 09:06:48;;;;;;;2.60;2.10;;;;;;;11.03;100.00;99243.22;4961267;28;20201;-67
2021/09/30 09:09:22;;;;;;;3.40;1.67;;;;;;;11.00;100.00;99239.84;4995206;28;20236;-68
2021/09/30 09:11:51;;;;;;;5.23;2.07;;;;;;;11.06;100.00;99242.94;4968607;28;20620;-68
2021/09/30 09:14:25;;;;;;;2.00;1.90;;;;;;;11.02;100.00;99245.03;4993262;28;20214;-68
2021/09/30 09:17:01;;;;;;;1.60;1.37;;;;;;;11.16;100.00;99249.09;4989167;28;20429;-69
2021/09/30 09:19:37;;;;;;;3.20;2.10;;;;;;;10.85;100.00;99249.19;4956609;28;20545;-67
2021/09/30 09:22:12;;;;;;;4.80;2.13;;;;;;;11.12;100.00;99245.03;4971835;28;20232;-69
2021/09/30 09:25:00;;;;;;;2.57;1.87;;;;;;;11.28;100.00;99247.16;4977047;28;20212;-70
2021/09/30 09:27:50;;;;;;;3.53;1.67;;;;;;;11.24;100.00;99254.56;4991212;28;20582;-69
2021/09/30 09:30:39;;;;;;;1.70;1.60;;;;;;;11.38;100.00;99249.81;4992714;28;20208;-71
2021/09/30 09:33:14;;;;;;;2.80;2.20;;;;;;;11.66;100.00;99247.34;4989930;28;20235;-69
2021/09/30 09:35:52;;;;;;;2.53;1.83;;;;;;;11.60;100.00;99245.25;4954745;28;20209;-71
2021/09/30 09:38:22;;;;;;;1.97;1.53;;;;;;;11.70;100.00;99241.59;4989759;28;20213;-71
2021/09/30 09:40:56;;;;;;;1.90;1.80;;;;;;;11.85;100.00;99235.84;4982841;28;20239;-69
2021/09/30 09:43:30;;;;;;;4.40;1.70;;;;;;;11.95;100.00;99246.47;4990751;28;20228;-69
2021/09/30 09:45:59;;;;;;;2.63;1.47;;;;;;;12.37;100.00;99248.78;4993757;28;20197;-70
2021/09/30 09:48:27;;;;;;;2.50;2.00;;;;;;;12.12;100.00;99251.06;4993771;28;20233;-70
2021/09/30 09:50:55;;;;;;;1.43;1.40;;;;;;;12.23;100.00;99258.06;4959160;28;20771;-71
2021/09/30 09:53:28;;;;;;;2.60;1.60;;;;;;;12.29;100.00;99256.63;4988991;28;20224;-71
2021/09/30 09:56:11;;;;;;;5.60;2.63;;;;;;;12.83;100.00;99251.53;4989867;28;20498;-71
2021/09/30 09:58:43;;;;;;;1.13;1.13;;;;;;;13.22;100.00;99239.81;4976326;28;20201;-70
2021/09/30 10:01:11;;;;;;;1.43;1.33;;;;;;;12.94;100.00;99242.50;4991619;28;20216;-70
2021/09/30 10:03:50;;;;;;;1.60;1.50;;;;;;;12.91;100.00;99237.50;4986250;28;20324;-68
2021/09/30 10:06:18;;;;;;;1.43;1.33;;;;;;;12.77;100.00;99225.53;4993127;28;21902;-71
2021/09/30 10:08:46;;;;;;;1.80;1.47;;;;;;;12.37;100.00;99232.84;4957854;28;20251;-69
2021/09/30 10:11:16;;;;;;;1.77;1.67;;;;;;;12.39;100.00;99228.22;4990602;28;20209;-70
2021/09/30 10:13:44;;;;;;;2.00;1.57;;;;;;;12.07;100.00;99224.09;4976524;28;20978;-68
2021/09/30 10:16:16;;;;;;;2.00;1.90;;;;;;;12.13;100.00;99218.22;4988546;28;20709;-67
2021/09/30 10:18:44;;;;;;;2.77;1.20;;;;;;;12.48;100.00;99204.38;4987309;28;20197;-68
2021/09/30 10:21:12;;;;;;;3.00;1.33;;;;;;;12.40;97.28;99208.63;4993872;28;20209;-68
2021/09/30 10:23:40;;;;;;;2.50;1.00;;;;;;;12.44;90.35;99207.34;4958192;28;20244;-69
2021/09/30 10:26:17;;;;;;;2.43;1.30;;;;;;;12.78;88.54;99203.25;4941530;28;20275;-68
2021/09/30 10:28:46;;;;;;;1.33;0.90;;;;;;;12.65;87.62;99216.06;4991680;28;20228;-68
2021/09/30 10:31:32;;;;;;;1.73;1.00;;;;;;;12.74;86.05;99209.84;4987047;28;20704;-70
2021/09/30 10:34:02;;;;;;;2.00;1.10;;;;;;;13.24;84.93;99211.22;4979167;28;20216;-70
2021/09/30 10:36:40;;;;;;;0.80;0.80;;;;;;;13.65;83.46;99215.28;4993948;28;20205;-70
2021/09/30 10:39:30;;;;;;;0.77;0.77;;;;;;;13.85;83.39;99214.13;4988777;28;20212;-70
2021/09/30 10:42:01;;;;;;;2.40;1.30;;;;;;;13.94;79.89;99215.00;4946948;28;20236;-70
2021/09/30 10:44:34;;;;;;;1.67;0.90;;;;;;;13.86;83.89;99210.47;4991188;28;20209;-69
2021/09/30 10:47:03;;;;;;;1.07;0.97;;;;;;;14.19;79.75;99210.66;4986947;28;20459;-69
2021/09/30 10:49:43;;;;;;;1.00;1.00;;;;;;;14.35;68.14;99200.25;4982884;28;20236;-69
2021/09/30 10:52:23;;;;;;;2.10;0.80;;;;;;;14.55;68.67;99199.03;4987028;28;20574;-68
2021/09/30 10:54:54;;;;;;;1.03;0.93;;;;;;;14.53;73.90;99197.50;4972479;28;20223;-66
2021/09/30 10:57:44;;;;;;;1.90;1.43;;;;;;;14.39;76.59;99196.25;4954630;28;20309;-69
2021/09/30 11:00:14;;;;;;;1.33;1.00;;;;;;;14.43;76.08;99185.13;4992311;28;20205;-68
2021/09/30 11:03:12;;;;;;;0.90;0.90;;;;;;;14.84;70.92;99183.66;4989786;28;20224;-69
2021/09/30 11:05:43;;;;;;;1.93;1.50;;;;;;;14.77;69.96;99186.13;4980734;28;20217;-69
2021/09/30 11:08:33;;;;;;;1.07;1.07;;;;;;;14.93;69.15;99177.31;4992332;28;20206;-66
2021/09/30 11:11:13;;;;;;;1.53;1.40;;;;;;;14.48;74.77;99174.00;4945139;28;21733;-68
2021/09/30 11:13:45;;;;;;;1.37;1.27;;;;;;;14.94;73.04;99173.66;4986885;28;20720;-66
2021/09/30 11:16:15;;;;;;;2.13;1.17;;;;;;;15.18;71.36;99178.22;4978977;28;20209;-68
2021/09/30 11:18:47;;;;;;;4.40;1.40;;;;;;;14.84;69.94;99173.81;4977542;28;20316;-68
2021/09/30 11:21:47;;;;;;;2.03;0.83;;;;;;;14.38;70.63;99167.94;4983281;28;20232;-67
2021/09/30 11:24:57;;;;;;;1.43;1.33;;;;;;;13.78;73.84;99172.28;4991741;28;20224;-67
2021/09/30 11:27:30;;;;;;;1.43;1.33;;;;;;;13.35;86.54;99172.06;4922869;28;20213;-69
2021/09/30 11:30:25;;;;;;;1.03;1.03;;;;;;;13.51;85.46;99168.72;4991737;28;20226;-69
2021/09/30 11:32:59;;;;;;;2.07;1.20;;;;;;;13.36;89.41;99155.94;4976314;28;20240;-67
2021/09/30 11:35:28;;;;;;;3.10;1.40;;;;;;;13.63;80.41;99158.66;4983657;28;20736;-68
2021/09/30 11:37:56;;;;;;;1.57;1.20;;;;;;;13.80;77.08;99151.63;4994584;28;20303;-68
2021/09/30 11:40:24;;;;;;;1.63;1.53;;;;;;;13.51;75.22;99150.94;4987895;28;20204;-68
2021/09/30 11:42:56;;;;;;;1.73;1.23;;;;;;;13.58;83.41;99135.16;4954809;28;20218;-67
2021/09/30 11:45:30;;;;;;;2.67;1.20;;;;;;;13.71;81.74;99148.06;4991694;28;20566;-67
2021/09/30 11:48:03;;;;;;;1.20;1.03;;;;;;;13.69;73.89;99150.91;4982058;28;20223;-68
2021/09/30 11:50:32;;;;;;;1.87;1.20;;;;;;;13.46;73.14;99132.75;4982911;28;20239;-67
2021/09/30 11:53:02;;;;;;;2.60;1.30;;;;;;;13.48;77.32;99135.28;4995026;28;20248;-70
2021/09/30 11:55:31;;;;;;;1.17;1.00;;;;;;;13.93;68.32;99125.41;4990875;28;20641;-69
2021/09/30 11:58:03;;;;;;;1.87;0.83;;;;;;;14.24;71.21;99124.06;4956485;28;20518;-69
2021/09/30 12:00:34;;;;;;;1.43;1.33;;;;;;;14.38;69.34;99122.59;4989118;28;20201;-68
2021/09/30 12:03:17;;;;;;;2.90;1.10;;;;;;;14.76;65.79;99123.94;4980763;28;20874;-68
2021/09/30 12:05:45;;;;;;;1.07;1.07;;;;;;;14.95;64.28;99115.78;4989568;28;20227;-68
2021/09/30 12:08:15;;;;;;;0.97;0.97;;;;;;;15.69;66.15;99114.94;4987476;28;20255;-69
2021/09/30 12:10:43;;;;;;;0.93;0.93;;;;;;;16.58;62.00;99108.66;4995505;28;20221;-69
2021/09/30 12:13:13;;;;;;;0.77;0.77;;;;;;;17.46;55.17;99119.94;4961863;28;20548;-72
2021/09/30 12:15:43;;;;;;;0.80;0.80;;;;;;;16.51;52.59;99113.88;4980775;28;20582;-72
2021/09/30 12:18:21;;;;;;;0.80;0.80;;;;;;;16.92;52.66;99112.81;4994502;28;20213;-73
2021/09/30 12:20:54;;;;;;;1.47;0.70;;;;;;;16.97;53.61;99102.38;4977019;28;20205;-72
2021/09/30 12:23:22;;;;;;;1.67;1.20;;;;;;;17.84;49.10;99113.72;4993260;28;20235;-72
2021/09/30 12:25:50;;;;;;;1.97;1.20;;;;;;;18.69;47.46;99097.28;4993932;28;21208;-67
2021/09/30 12:28:18;;;;;;;0.77;0.67;;;;;;;18.88;45.75;99109.25;4961876;28;20224;-68
2021/09/30 12:30:47;;;;;;;2.23;1.37;;;;;;;19.00;46.07;99104.25;4991583;28;20574;-66
2021/09/30 12:33:15;;;;;;;1.10;0.60;;;;;;;19.05;47.52;99096.44;5001419;28;20220;-70
2021/09/30 12:35:44;;;;;;;1.20;1.00;;;;;;;19.02;42.66;99106.75;4943369;28;20662;-68
2021/09/30 12:38:14;;;;;;;0.70;0.70;;;;;;;18.87;43.46;99099.53;4990805;28;20204;-65
2021/09/30 12:40:44;;;;;;;3.83;0.70;;;;;;;19.22;42.05;99088.94;4994048;28;20233;-67
2021/09/30 12:43:13;;;;;;;1.90;0.77;;;;;;;18.71;40.30;99089.84;4981435;28;20232;-65
2021/09/30 12:45:45;;;;;;;4.10;1.03;;;;;;;18.91;41.89;99082.00;4994656;28;20201;-68
2021/09/30 12:48:15;;;;;;;1.60;0.87;;;;;;;19.53;40.30;99084.25;4989183;28;20205;-71
2021/09/30 12:50:47;;;;;;;2.40;0.97;;;;;;;19.42;39.92;99074.84;4959614;28;20225;-70
2021/09/30 12:53:16;;;;;;;2.23;0.70;;;;;;;19.41;39.67;99083.09;4990790;28;20278;-67
2021/09/30 12:55:44;;;;;;;0.50;0.47;;;;;;;19.66;41.54;99086.16;4983994;28;20212;-69
2021/09/30 12:58:30;;;;;;;0.80;0.80;;;;;;;20.19;40.65;99071.41;4980517;28;20210;-67
2021/09/30 13:00:58;;;;;;;2.23;1.50;;;;;;;21.17;37.63;99072.06;4994702;28;20296;-68
2021/09/30 13:03:28;;;;;;;0.97;0.70;;;;;;;20.29;38.46;99066.47;4989799;28;20521;-70
2021/09/30 13:05:57;;;;;;;0.67;0.67;;;;;;;19.81;36.88;99073.44;4959447;28;20689;-68
2021/09/30 13:08:40;;;;;;;1.47;1.03;;;;;;;19.08;38.40;99069.19;4991414;28;20280;-64
2021/09/30 13:11:28;;;;;;;0.50;0.50;;;;;;;18.93;40.16;99065.72;4980932;28;20709;-65
2021/09/30 13:14:25;;;;;;;4.17;0.80;;;;;;;17.45;40.80;99074.56;4983098;28;20232;-67
2021/09/30 13:16:54;;;;;;;1.20;0.70;;;;;;;15.88;44.77;99066.50;4979120;28;20200;-70
2021/09/30 13:19:44;;;;;;;0.70;0.70;;;;;;;15.37;47.69;99066.72;4990816;28;20197;-69
2021/09/30 13:22:13;;;;;;;1.17;0.80;;;;;;;16.46;45.91;99063.53;4954410;28;20290;-69
2021/09/30 13:24:42;;;;;;;1.50;0.90;;;;;;;16.82;44.05;99066.69;4992592;28;20213;-70
2021/09/30 13:27:12;;;;;;;0.53;0.50;;;;;;;16.46;45.16;99052.84;4968399;28;20209;-69
2021/09/30 13:29:42;;;;;;;0.60;0.60;;;;;;;16.30;45.94;99066.31;4982336;28;20684;-71
2021/09/30 13:32:11;;;;;;;0.60;0.60;;;;;;;15.88;47.81;99066.50;4979549;28;20578;-70
2021/09/30 13:34:40;;;;;;;1.73;1.33;;;;;;;15.14;50.36;99054.06;4994768;28;20235;-68
2021/09/30 13:37:08;;;;;;;2.10;0.90;;;;;;;14.76;52.43;99048.38;4953949;28;20239;-69
2021/09/30 13:39:37;;;;;;;2.43;0.70;;;;;;;14.61;53.06;99051.66;4975564;28;20209;-70
2021/09/30 13:42:06;;;;;;;4.20;0.80;;;;;;;14.58;53.67;99043.16;4980186;28;20229;-70
2021/09/30 13:44:34;;;;;;;1.07;0.80;;;;;;;14.55;55.86;99041.66;4982632;28;20220;-71
2021/09/30 13:47:03;;;;;;;0.87;0.70;;;;;;;14.56;58.04;99038.00;4978161;28;20205;-70
2021/09/30 13:49:31;;;;;;;1.63;0.80;;;;;;;14.55;55.93;99039.00;4991241;28;20951;-70
2021/09/30 13:52:00;;;;;;;1.13;0.87;;;;;;;14.54;56.54;99036.47;4960845;28;20243;-70
2021/09/30 13:54:28;;;;;;;2.73;0.87;;;;;;;14.60;55.23;99033.16;4991987;28;20212;-68
2021/09/30 13:56:56;;;;;;;1.30;1.20;;;;;;;14.98;55.07;99030.91;4983696;28;20857;-70
2021/09/30 13:59:24;;;;;;;0.70;0.70;;;;;;;15.06;52.24;99035.38;4993320;28;20205;-68
2021/09/30 14:02:13;;;;;;;1.10;0.80;;;;;;;15.95;49.98;99017.69;4976445;28;20531;-68
2021/09/30 14:04:41;;;;;;;1.97;0.80;;;;;;;17.13;47.80;99023.81;4990167;28;20315;-69
2021/09/30 14:07:10;;;;;;;0.70;0.70;;;;;;;18.30;46.17;99017.97;4954173;28;20228;-69
2021/09/30 14:09:38;;;;;;;1.20;0.60;;;;;;;19.29;40.26;99021.81;4983408;28;20201;-70
2021/09/30 14:12:07;;;;;;;2.30;0.83;;;;;;;19.47;39.89;99018.63;4992721;28;20224;-69
2021/09/30 14:14:35;;;;;;;0.80;0.80;;;;;;;19.45;39.57;99011.78;4972640;28;20335;-70
2021/09/30 14:17:03;;;;;;;0.73;0.60;;;;;;;19.23;39.64;99011.88;4982611;28;20213;-70
2021/09/30 14:19:31;;;;;;;1.20;0.70;;;;;;;18.46;40.43;99008.88;4988266;28;20219;-69
2021/09/30 14:21:59;;;;;;;2.53;1.20;;;;;;;17.63;42.38;99002.72;4992471;28;20713;-69
2021/09/30 14:24:31;;;;;;;0.57;0.57;;;;;;;17.57;42.09;99008.78;4952288;28;20232;-69